Time;durP1;ratioP1;P1;durP2;ratioP2;P2;SDS_P1;SDS_P2;PMS_P1;PMS_P2;Temp;Humidity;BMP_temperature;BMP_pressure;BME280_temperature;BME280_humidity;BME280_pressure;Samples;Min_cycle;Max_cycle;Signal;HPM_P1;HPM_P2
2021/09/23 00:02:24;;;;;;;6.67;6.07;;;11.90;99.90;;;;;;5021360;28;20198;-81
2021/09/23 00:04:51;;;;;;;7.27;6.17;;;11.90;99.90;;;;;;5021168;28;20224;-81
2021/09/23 00:07:16;;;;;;;7.07;6.47;;;11.90;99.90;;;;;;5021731;28;20540;-80
2021/09/23 00:09:42;;;;;;;7.40;6.70;;;11.90;99.90;;;;;;5020933;28;20205;-80
2021/09/23 00:12:08;;;;;;;7.17;6.53;;;11.80;99.90;;;;;;5020591;28;20206;-80
2021/09/23 00:14:34;;;;;;;7.00;6.23;;;11.80;99.90;;;;;;5020633;28;20240;-80
2021/09/23 00:16:59;;;;;;;7.10;6.40;;;11.80;99.90;;;;;;5019278;28;20289;-80
2021/09/23 00:19:25;;;;;;;6.60;6.00;;;11.80;99.90;;;;;;5020254;28;20199;-82
2021/09/23 00:21:51;;;;;;;6.67;5.90;;;11.70;99.90;;;;;;5020471;28;20173;-80
2021/09/23 00:24:17;;;;;;;7.27;6.57;;;11.80;99.90;;;;;;5018964;28;20178;-80
2021/09/23 00:26:43;;;;;;;7.07;6.37;;;11.80;99.90;;;;;;5018951;28;20527;-80
2021/09/23 00:29:08;;;;;;;6.60;6.00;;;11.70;99.90;;;;;;5020371;28;20199;-80
2021/09/23 00:31:34;;;;;;;9.23;6.50;;;11.70;99.90;;;;;;5018772;28;20249;-80
2021/09/23 00:34:00;;;;;;;8.53;6.40;;;11.70;99.90;;;;;;5020191;28;20206;-80
2021/09/23 00:36:25;;;;;;;6.97;6.17;;;11.70;99.90;;;;;;5019359;28;20308;-81
2021/09/23 00:38:51;;;;;;;7.47;6.77;;;11.70;99.90;;;;;;5018141;28;20203;-80
2021/09/23 00:41:17;;;;;;;7.47;6.70;;;11.70;99.90;;;;;;5020278;28;20520;-80
2021/09/23 00:43:43;;;;;;;7.17;6.40;;;11.70;99.90;;;;;;5018574;28;20178;-80
2021/09/23 00:46:09;;;;;;;9.00;7.00;;;11.70;99.90;;;;;;5011245;28;20697;-80
2021/09/23 00:48:35;;;;;;;6.97;6.37;;;11.70;99.90;;;;;;5020008;28;20209;-80
2021/09/23 00:51:01;;;;;;;7.50;6.70;;;11.70;99.90;;;;;;5002218;28;20224;-80
2021/09/23 00:53:27;;;;;;;7.07;6.33;;;11.70;99.90;;;;;;4998175;28;20191;-80
2021/09/23 00:55:58;;;;;;;8.40;6.97;;;11.70;99.90;;;;;;4999773;28;20181;-80
2021/09/23 00:58:25;;;;;;;7.73;6.90;;;11.60;99.90;;;;;;4986815;28;20241;-80
2021/09/23 01:00:50;;;;;;;7.67;6.97;;;11.60;99.90;;;;;;4998802;28;20210;-80
2021/09/23 01:03:16;;;;;;;8.33;7.10;;;11.70;99.90;;;;;;5001993;28;20172;-80
2021/09/23 01:05:42;;;;;;;7.77;7.00;;;11.60;99.90;;;;;;5004920;28;20233;-80
2021/09/23 01:08:08;;;;;;;9.50;7.80;;;11.60;99.90;;;;;;4999438;28;20563;-80
2021/09/23 01:10:33;;;;;;;10.50;6.93;;;11.60;99.90;;;;;;4990856;28;20174;-80
2021/09/23 01:12:59;;;;;;;9.33;7.13;;;11.60;99.90;;;;;;4977912;28;20242;-80
2021/09/23 01:15:25;;;;;;;7.57;6.70;;;11.70;99.90;;;;;;4985411;28;20200;-80
2021/09/23 01:17:50;;;;;;;8.50;7.70;;;11.60;99.90;;;;;;4981616;28;20204;-80
2021/09/23 01:20:18;;;;;;;8.97;7.27;;;11.60;99.90;;;;;;4983854;28;20174;-80
2021/09/23 01:22:45;;;;;;;8.40;7.63;;;11.60;99.90;;;;;;4980963;28;20215;-80
2021/09/23 01:25:14;;;;;;;8.30;7.50;;;11.60;99.90;;;;;;4980361;28;20662;-80
2021/09/23 01:27:40;;;;;;;8.20;7.40;;;11.50;99.90;;;;;;4980282;28;21276;-79
2021/09/23 01:30:06;;;;;;;8.40;7.60;;;11.50;99.90;;;;;;4993803;28;20244;-80
2021/09/23 01:32:31;;;;;;;8.50;7.70;;;11.50;99.90;;;;;;4986093;28;20173;-79
2021/09/23 01:34:57;;;;;;;8.43;7.63;;;11.40;99.90;;;;;;4982015;28;20242;-80
2021/09/23 01:37:23;;;;;;;7.80;6.93;;;11.40;99.90;;;;;;4997538;28;20194;-80
2021/09/23 01:39:48;;;;;;;9.10;7.93;;;11.40;99.90;;;;;;4982989;28;20193;-80
2021/09/23 01:42:14;;;;;;;12.00;7.80;;;11.40;99.90;;;;;;4979509;28;20187;-80
2021/09/23 01:44:40;;;;;;;9.77;6.90;;;11.40;99.90;;;;;;4979888;28;20289;-81
2021/09/23 01:47:05;;;;;;;7.73;7.03;;;11.40;99.90;;;;;;4976618;28;20184;-80
2021/09/23 01:49:31;;;;;;;7.53;6.87;;;11.50;99.90;;;;;;4991435;28;20202;-80
2021/09/23 01:51:57;;;;;;;8.90;7.57;;;11.40;99.90;;;;;;4995109;28;20273;-80
2021/09/23 01:54:23;;;;;;;7.87;7.20;;;11.40;99.90;;;;;;4997444;28;20212;-80
2021/09/23 01:56:53;;;;;;;7.83;7.03;;;11.40;99.90;;;;;;4995211;28;20276;-80
2021/09/23 01:59:23;;;;;;;9.00;7.17;;;11.40;99.90;;;;;;4998922;28;20218;-80
2021/09/23 02:01:48;;;;;;;7.60;6.90;;;11.40;99.90;;;;;;4995769;28;20177;-80
2021/09/23 02:04:15;;;;;;;8.07;7.27;;;11.30;99.90;;;;;;4997341;28;20177;-80
2021/09/23 02:06:40;;;;;;;10.37;7.37;;;11.30;99.90;;;;;;4996966;28;20862;-80
2021/09/23 02:09:06;;;;;;;8.23;7.47;;;11.30;99.90;;;;;;4995946;28;20662;-80
2021/09/23 02:11:31;;;;;;;8.03;7.03;;;11.20;99.90;;;;;;4996447;28;20178;-79
2021/09/23 02:13:57;;;;;;;7.87;7.07;;;11.20;99.90;;;;;;4998128;28;20262;-80
2021/09/23 02:16:23;;;;;;;8.40;7.27;;;11.20;99.90;;;;;;4997890;28;20209;-80
2021/09/23 02:18:48;;;;;;;8.40;7.47;;;11.20;99.90;;;;;;4992373;28;20242;-80
2021/09/23 02:21:14;;;;;;;8.57;7.70;;;11.30;99.90;;;;;;5009547;28;20329;-80
2021/09/23 02:23:40;;;;;;;8.90;7.97;;;11.20;99.90;;;;;;5019134;28;20176;-80
2021/09/23 02:26:06;;;;;;;9.50;7.43;;;11.20;99.90;;;;;;5020857;28;20182;-80
2021/09/23 02:28:35;;;;;;;8.37;7.63;;;11.20;99.90;;;;;;5021349;28;20574;-80
2021/09/23 02:31:01;;;;;;;9.37;8.43;;;11.20;99.90;;;;;;5021382;28;20179;-80
2021/09/23 02:33:26;;;;;;;9.43;7.80;;;11.30;99.90;;;;;;5021057;28;20175;-80
2021/09/23 02:35:52;;;;;;;11.23;8.00;;;11.20;99.90;;;;;;5019698;28;20187;-80
2021/09/23 02:38:18;;;;;;;8.13;6.87;;;11.20;99.90;;;;;;5021722;28;20239;-80
2021/09/23 02:40:44;;;;;;;9.13;7.63;;;11.10;99.90;;;;;;5020026;28;20182;-80
2021/09/23 02:43:09;;;;;;;8.17;7.37;;;11.10;99.90;;;;;;5021032;28;20182;-80
2021/09/23 02:45:35;;;;;;;9.10;8.20;;;11.10;99.90;;;;;;5012642;28;20192;-80
2021/09/23 02:48:00;;;;;;;9.50;7.30;;;11.00;99.90;;;;;;5020509;28;20693;-80
2021/09/23 02:50:26;;;;;;;8.00;7.23;;;11.00;99.90;;;;;;5021269;28;20216;-80
2021/09/23 02:52:52;;;;;;;8.70;7.80;;;11.00;99.90;;;;;;5020717;28;20176;-80
2021/09/23 02:55:17;;;;;;;8.40;7.60;;;10.90;99.90;;;;;;5020882;28;20184;-80
2021/09/23 02:57:43;;;;;;;8.57;7.77;;;10.90;99.90;;;;;;5019392;28;20203;-80
2021/09/23 03:00:09;;;;;;;8.67;7.77;;;10.80;99.90;;;;;;5010275;28;20185;-80
2021/09/23 03:02:35;;;;;;;8.50;7.47;;;10.80;99.90;;;;;;5021106;28;20226;-79
2021/09/23 03:05:00;;;;;;;7.53;6.70;;;10.90;99.90;;;;;;5019998;28;20203;-81
2021/09/23 03:07:26;;;;;;;7.70;7.00;;;10.70;99.90;;;;;;5019947;28;20226;-80
2021/09/23 03:09:52;;;;;;;7.87;7.00;;;10.70;99.90;;;;;;5020848;28;20190;-81
2021/09/23 03:12:19;;;;;;;8.53;6.87;;;10.70;99.90;;;;;;5010787;28;20182;-80
2021/09/23 03:14:45;;;;;;;9.20;7.27;;;10.60;99.90;;;;;;5003667;28;20231;-81
2021/09/23 03:17:11;;;;;;;7.30;6.60;;;10.60;99.90;;;;;;5018195;28;20210;-81
2021/09/23 03:19:36;;;;;;;9.33;6.63;;;10.50;99.90;;;;;;5020117;28;20194;-81
2021/09/23 03:22:02;;;;;;;7.60;6.90;;;10.40;99.90;;;;;;5020522;28;20179;-81
2021/09/23 03:24:28;;;;;;;7.60;6.90;;;10.30;99.90;;;;;;5019626;28;20174;-81
2021/09/23 03:26:53;;;;;;;8.33;7.53;;;10.30;99.90;;;;;;5021235;28;20189;-81
2021/09/23 03:29:19;;;;;;;9.00;8.03;;;10.20;99.90;;;;;;5018723;28;20290;-80
2021/09/23 03:31:45;;;;;;;8.00;7.30;;;10.30;99.90;;;;;;5019471;28;20196;-81
2021/09/23 03:34:11;;;;;;;9.77;7.83;;;10.30;99.90;;;;;;5020710;28;20178;-80
2021/09/23 03:36:36;;;;;;;9.00;8.23;;;10.30;99.90;;;;;;5019274;28;20195;-80
2021/09/23 03:39:04;;;;;;;9.50;8.60;;;10.40;99.90;;;;;;5018835;28;20197;-80
2021/09/23 03:41:32;;;;;;;10.50;8.83;;;10.40;99.90;;;;;;5021253;28;20249;-81
2021/09/23 03:43:58;;;;;;;9.03;8.13;;;10.40;99.90;;;;;;5020015;28;20661;-81
2021/09/23 03:46:24;;;;;;;10.03;8.00;;;10.50;99.90;;;;;;5010386;28;20176;-81
2021/09/23 03:48:49;;;;;;;7.80;7.10;;;10.40;99.90;;;;;;5020383;28;20748;-81
2021/09/23 03:51:15;;;;;;;10.40;8.20;;;10.40;99.90;;;;;;5020414;28;20197;-80
2021/09/23 03:53:42;;;;;;;12.97;9.10;;;10.30;99.90;;;;;;5018419;28;20181;-80
2021/09/23 03:56:12;;;;;;;9.73;8.60;;;10.30;99.90;;;;;;5019681;28;20224;-80
2021/09/23 03:58:42;;;;;;;10.53;9.47;;;10.20;99.90;;;;;;5019048;28;20212;-80
2021/09/23 04:01:09;;;;;;;10.73;9.73;;;10.20;99.90;;;;;;5007814;28;20223;-80
2021/09/23 04:03:35;;;;;;;10.40;9.40;;;10.20;99.90;;;;;;4999561;28;20185;-81
2021/09/23 04:06:01;;;;;;;10.30;8.60;;;10.20;99.90;;;;;;5003200;28;20189;-81
2021/09/23 04:08:27;;;;;;;8.17;7.33;;;10.20;99.90;;;;;;5009301;28;20194;-80
2021/09/23 04:10:53;;;;;;;15.77;8.90;;;10.20;99.90;;;;;;5018514;28;20178;-80
2021/09/23 04:13:18;;;;;;;10.07;8.40;;;10.10;99.90;;;;;;5019013;28;20175;-81
2021/09/23 04:15:46;;;;;;;9.50;8.60;;;10.10;99.90;;;;;;5018996;28;20178;-80
2021/09/23 04:18:15;;;;;;;9.50;8.50;;;10.10;99.90;;;;;;5018953;28;20205;-80
2021/09/23 04:20:42;;;;;;;8.17;7.47;;;10.00;99.90;;;;;;5018958;28;20177;-81
2021/09/23 04:23:07;;;;;;;8.80;8.00;;;10.00;99.90;;;;;;5018805;28;20184;-80
2021/09/23 04:25:33;;;;;;;9.47;8.50;;;10.00;99.90;;;;;;5018468;28;20176;-81
2021/09/23 04:27:58;;;;;;;10.10;8.87;;;10.00;99.90;;;;;;5017584;28;20207;-80
2021/09/23 04:30:24;;;;;;;9.77;8.67;;;10.00;99.90;;;;;;5016722;28;20186;-80
2021/09/23 04:32:50;;;;;;;10.20;9.30;;;10.00;99.90;;;;;;4978369;28;20201;-80
2021/09/23 04:35:16;;;;;;;10.43;9.13;;;10.00;99.90;;;;;;4984029;28;20182;-81
2021/09/23 04:37:41;;;;;;;12.43;9.40;;;10.00;99.90;;;;;;5014830;28;20203;-80
2021/09/23 04:40:08;;;;;;;10.33;9.13;;;9.90;99.90;;;;;;5017799;28;20189;-80
2021/09/23 04:42:33;;;;;;;11.33;9.13;;;9.90;99.90;;;;;;5008245;28;20186;-80
2021/09/23 04:44:59;;;;;;;11.03;9.07;;;9.80;99.90;;;;;;5013404;28;20318;-79
2021/09/23 04:47:24;;;;;;;10.67;9.53;;;9.80;99.90;;;;;;5012331;28;20192;-81
2021/09/23 04:49:50;;;;;;;12.30;9.67;;;9.80;99.90;;;;;;5018761;28;20565;-81
2021/09/23 04:52:16;;;;;;;10.83;9.60;;;9.80;99.90;;;;;;5013518;28;20280;-81
2021/09/23 04:54:42;;;;;;;12.37;8.97;;;9.80;99.90;;;;;;5016489;28;20260;-81
2021/09/23 04:57:08;;;;;;;10.47;8.90;;;9.70;99.90;;;;;;5009108;28;20264;-81
2021/09/23 04:59:33;;;;;;;11.43;9.87;;;9.70;99.90;;;;;;4998155;28;20215;-80
2021/09/23 05:01:59;;;;;;;12.67;9.37;;;9.70;99.90;;;;;;4983665;28;20213;-80
2021/09/23 05:04:25;;;;;;;9.87;8.87;;;9.60;99.90;;;;;;4980366;28;20189;-81
2021/09/23 05:06:53;;;;;;;11.03;9.00;;;9.50;99.90;;;;;;4989260;28;20253;-81
2021/09/23 05:09:18;;;;;;;13.97;10.07;;;9.40;99.90;;;;;;4979546;28;20296;-80
2021/09/23 05:11:44;;;;;;;10.27;9.37;;;9.30;99.90;;;;;;5008058;28;20216;-81
2021/09/23 05:14:10;;;;;;;14.97;10.00;;;9.20;99.90;;;;;;5017101;28;20762;-81
2021/09/23 05:16:35;;;;;;;10.17;9.23;;;9.20;99.90;;;;;;5018918;28;20294;-81
2021/09/23 05:19:01;;;;;;;10.27;9.27;;;9.30;99.90;;;;;;5017976;28;20201;-81
2021/09/23 05:21:27;;;;;;;10.73;9.60;;;9.30;99.90;;;;;;5014559;28;20710;-81
2021/09/23 05:23:53;;;;;;;12.23;9.60;;;9.30;99.90;;;;;;4998190;28;20271;-80
2021/09/23 05:26:18;;;;;;;13.40;10.80;;;9.30;99.90;;;;;;5006481;28;21619;-80
2021/09/23 05:28:44;;;;;;;10.97;9.87;;;9.40;99.90;;;;;;4979759;28;20200;-80
2021/09/23 05:31:09;;;;;;;9.93;8.90;;;9.40;99.90;;;;;;5018666;28;20214;-80
2021/09/23 05:33:36;;;;;;;12.23;9.23;;;9.40;99.90;;;;;;5018262;28;20267;-80
2021/09/23 05:36:01;;;;;;;11.57;9.43;;;9.40;99.90;;;;;;5015609;28;20722;-80
2021/09/23 05:38:27;;;;;;;14.77;9.60;;;9.40;99.90;;;;;;5017654;28;20237;-80
2021/09/23 05:40:53;;;;;;;11.97;9.30;;;9.40;99.90;;;;;;4986319;28;20212;-80
2021/09/23 05:43:18;;;;;;;11.67;10.47;;;9.40;99.90;;;;;;4980254;28;20307;-80
2021/09/23 05:45:44;;;;;;;13.73;10.53;;;9.40;99.90;;;;;;4994817;28;20618;-80
2021/09/23 05:48:09;;;;;;;11.67;9.90;;;9.40;99.90;;;;;;5018121;28;20266;-80
2021/09/23 05:50:35;;;;;;;12.97;10.27;;;9.30;99.90;;;;;;5018646;28;20189;-80
2021/09/23 05:53:01;;;;;;;12.37;10.60;;;9.30;99.90;;;;;;5020152;28;20267;-80
2021/09/23 05:55:28;;;;;;;11.23;10.10;;;9.30;99.90;;;;;;5014635;28;20613;-79
2021/09/23 05:57:54;;;;;;;12.17;10.43;;;9.40;99.90;;;;;;4983445;28;20224;-80
2021/09/23 06:00:21;;;;;;;12.77;10.23;;;9.40;99.90;;;;;;4987482;28;20182;-80
2021/09/23 06:02:46;;;;;;;12.17;10.87;;;9.40;99.90;;;;;;4988353;28;20182;-80
2021/09/23 06:05:14;;;;;;;11.00;9.83;;;9.50;99.90;;;;;;4987757;28;20221;-80
2021/09/23 06:07:41;;;;;;;15.73;10.23;;;9.40;99.90;;;;;;4985543;28;20209;-80
2021/09/23 06:10:11;;;;;;;14.57;10.70;;;9.50;99.90;;;;;;4988824;28;20185;-80
2021/09/23 06:12:37;;;;;;;14.03;10.00;;;9.50;99.90;;;;;;5001302;28;20177;-80
2021/09/23 06:15:04;;;;;;;11.10;9.90;;;9.60;99.90;;;;;;5017129;28;20186;-80
2021/09/23 06:17:29;;;;;;;14.20;10.33;;;9.60;99.90;;;;;;4982791;28;20198;-80
2021/09/23 06:19:55;;;;;;;11.63;9.97;;;9.70;99.90;;;;;;4983279;28;20189;-80
2021/09/23 06:22:21;;;;;;;12.37;9.53;;;9.80;99.90;;;;;;5009905;28;20178;-80
2021/09/23 06:24:46;;;;;;;9.63;8.73;;;9.90;99.90;;;;;;5000772;28;20182;-80
2021/09/23 06:27:12;;;;;;;13.53;9.70;;;9.90;99.90;;;;;;4999123;28;20174;-80
2021/09/23 06:29:38;;;;;;;10.30;9.07;;;9.90;99.90;;;;;;4999443;28;20242;-81
2021/09/23 06:32:04;;;;;;;9.80;8.80;;;10.00;99.90;;;;;;5009246;28;20236;-80
2021/09/23 06:34:30;;;;;;;11.77;8.70;;;10.00;99.90;;;;;;5021124;28;20181;-80
2021/09/23 06:36:55;;;;;;;11.00;9.90;;;9.80;99.90;;;;;;4990542;28;20285;-80
2021/09/23 06:39:21;;;;;;;12.10;10.20;;;9.90;99.90;;;;;;4983639;28;20700;-80
2021/09/23 06:41:47;;;;;;;10.67;9.33;;;10.00;99.90;;;;;;4983388;28;20172;-80
2021/09/23 06:44:13;;;;;;;10.73;9.57;;;10.10;99.90;;;;;;4986871;28;20182;-80
2021/09/23 06:46:39;;;;;;;10.27;9.27;;;10.20;99.90;;;;;;4982864;28;20201;-80
2021/09/23 06:49:05;;;;;;;10.87;8.93;;;10.20;99.90;;;;;;4981266;28;20218;-81
2021/09/23 06:51:31;;;;;;;12.43;9.87;;;10.40;99.90;;;;;;4982901;28;20264;-80
2021/09/23 06:53:57;;;;;;;13.47;9.80;;;10.40;99.90;;;;;;4986698;28;20192;-80
2021/09/23 06:56:23;;;;;;;18.33;9.90;;;10.50;99.90;;;;;;4987007;28;20660;-80
2021/09/23 06:58:49;;;;;;;13.03;10.20;;;10.50;99.90;;;;;;5014373;28;20231;-80
2021/09/23 07:01:15;;;;;;;11.53;10.33;;;10.60;99.90;;;;;;5009062;28;20623;-80
2021/09/23 07:03:40;;;;;;;17.30;10.97;;;10.60;99.90;;;;;;4996287;28;20682;-80
2021/09/23 07:06:06;;;;;;;11.63;9.87;;;10.70;99.90;;;;;;5011401;28;20671;-80
2021/09/23 07:08:32;;;;;;;11.97;10.00;;;10.70;99.90;;;;;;5015677;28;20220;-80
2021/09/23 07:10:58;;;;;;;10.27;9.17;;;10.80;99.90;;;;;;5016955;28;20182;-80
2021/09/23 07:13:24;;;;;;;13.20;8.97;;;10.90;99.90;;;;;;4988715;28;20170;-80
2021/09/23 07:15:49;;;;;;;12.70;9.23;;;10.90;99.90;;;;;;4984094;28;20205;-80
2021/09/23 07:18:15;;;;;;;10.93;8.57;;;10.90;99.90;;;;;;5019454;28;20216;-80
2021/09/23 07:20:41;;;;;;;12.70;10.07;;;11.00;99.90;;;;;;5014237;28;20188;-80
2021/09/23 07:23:07;;;;;;;10.53;9.43;;;11.00;99.90;;;;;;4980787;28;20184;-80
2021/09/23 07:25:33;;;;;;;11.30;9.57;;;11.00;99.90;;;;;;5013182;28;20177;-80
2021/09/23 07:28:00;;;;;;;11.17;10.00;;;11.00;99.90;;;;;;4997925;28;20252;-80
2021/09/23 07:30:26;;;;;;;12.80;10.23;;;11.00;99.90;;;;;;5007332;28;20187;-80
2021/09/23 07:32:51;;;;;;;13.30;9.80;;;11.10;99.90;;;;;;4991752;28;20728;-80
2021/09/23 07:35:18;;;;;;;13.43;10.93;;;11.10;99.90;;;;;;5003007;28;20181;-80
2021/09/23 07:37:44;;;;;;;14.47;11.87;;;11.20;99.90;;;;;;4996001;28;20290;-80
2021/09/23 07:40:11;;;;;;;17.10;12.37;;;11.20;99.90;;;;;;5015920;28;20206;-80
2021/09/23 07:42:37;;;;;;;16.53;12.97;;;11.30;99.90;;;;;;5009912;28;20179;-80
2021/09/23 07:45:05;;;;;;;15.93;12.77;;;11.30;99.90;;;;;;4994729;28;20645;-80
2021/09/23 07:47:30;;;;;;;13.97;11.47;;;11.30;99.90;;;;;;4999281;28;20190;-80
2021/09/23 07:49:56;;;;;;;12.60;11.10;;;11.30;99.90;;;;;;5002338;28;20726;-80
2021/09/23 07:52:22;;;;;;;17.63;13.00;;;11.40;99.90;;;;;;4983821;28;20188;-80
2021/09/23 07:54:48;;;;;;;17.97;11.60;;;11.40;99.90;;;;;;4988442;28;20190;-80
2021/09/23 07:57:14;;;;;;;15.33;12.10;;;11.40;99.90;;;;;;4986420;28;20230;-80
2021/09/23 07:59:40;;;;;;;15.03;11.90;;;11.40;99.90;;;;;;5007431;28;20220;-80
2021/09/23 08:02:06;;;;;;;12.87;11.53;;;11.60;99.90;;;;;;5017781;28;20191;-81
2021/09/23 08:04:32;;;;;;;16.73;12.57;;;11.70;99.90;;;;;;5004196;28;20575;-80
2021/09/23 08:06:57;;;;;;;14.87;12.03;;;11.80;99.90;;;;;;5007590;28;20183;-80
2021/09/23 08:09:24;;;;;;;11.57;10.43;;;11.90;99.90;;;;;;5017177;28;20239;-78
2021/09/23 08:11:49;;;;;;;12.20;10.60;;;12.00;99.90;;;;;;4992061;28;20192;-80
2021/09/23 08:14:15;;;;;;;13.40;11.17;;;12.00;99.90;;;;;;5005426;28;20190;-80
2021/09/23 08:16:43;;;;;;;11.00;9.67;;;12.00;99.90;;;;;;5018111;28;20280;-81
2021/09/23 08:19:09;;;;;;;12.13;10.43;;;12.10;99.90;;;;;;5017661;28;20699;-81
2021/09/23 08:21:34;;;;;;;14.07;11.17;;;12.20;99.90;;;;;;5018453;28;20178;-81
2021/09/23 08:24:00;;;;;;;13.07;11.10;;;12.30;99.90;;;;;;5018557;28;20172;-81
2021/09/23 08:26:26;;;;;;;12.47;10.93;;;12.30;99.90;;;;;;5018520;28;20209;-81
2021/09/23 08:28:53;;;;;;;17.13;11.20;;;12.30;99.90;;;;;;5001525;28;21479;-81
2021/09/23 08:31:20;;;;;;;16.60;13.67;;;12.40;99.90;;;;;;4994245;28;20187;-80
2021/09/23 08:33:45;;;;;;;14.57;13.00;;;12.50;99.90;;;;;;4998898;28;20188;-81
2021/09/23 08:36:12;;;;;;;15.83;11.87;;;12.30;99.90;;;;;;5002236;28;20545;-79
2021/09/23 08:38:38;;;;;;;17.43;13.23;;;12.40;99.90;;;;;;4989568;28;20198;-79
2021/09/23 08:41:04;;;;;;;16.60;12.80;;;12.50;99.90;;;;;;4982020;28;20177;-80
2021/09/23 08:43:30;;;;;;;17.50;13.07;;;12.50;99.90;;;;;;4997957;28;20211;-80
2021/09/23 08:45:56;;;;;;;19.37;14.37;;;12.60;99.90;;;;;;5003500;28;20303;-79
2021/09/23 08:48:22;;;;;;;20.20;16.27;;;12.60;99.90;;;;;;4995767;28;20576;-80
2021/09/23 08:50:48;;;;;;;21.23;15.33;;;12.50;99.90;;;;;;4982337;28;20263;-80
2021/09/23 08:53:14;;;;;;;16.47;13.87;;;12.50;99.90;;;;;;5014229;28;20240;-80
2021/09/23 08:55:40;;;;;;;17.13;14.37;;;12.50;99.90;;;;;;5003277;28;20184;-79
2021/09/23 08:58:07;;;;;;;17.33;14.43;;;12.60;99.90;;;;;;4996838;28;20237;-80
2021/09/23 09:00:35;;;;;;;15.27;13.53;;;12.70;99.90;;;;;;5018891;28;20640;-79
2021/09/23 09:03:10;;;;;;;19.30;14.50;;;12.70;99.90;;;;;;5007037;28;20219;-80
2021/09/23 09:05:39;;;;;;;16.40;14.00;;;12.70;99.90;;;;;;4998234;28;20172;-80
2021/09/23 09:08:16;;;;;;;17.27;13.50;;;12.70;99.90;;;;;;4990046;28;20213;-80
2021/09/23 09:10:41;;;;;;;17.23;13.53;;;12.90;99.90;;;;;;4989063;28;20229;-79
2021/09/23 09:13:08;;;;;;;17.63;14.00;;;13.00;99.90;;;;;;5016800;28;20599;-79
2021/09/23 09:15:47;;;;;;;19.03;13.80;;;13.00;99.90;;;;;;5017072;28;20264;-79
2021/09/23 09:18:19;;;;;;;18.60;14.17;;;13.20;99.90;;;;;;5017325;28;20661;-79
2021/09/23 09:21:11;;;;;;;16.57;13.47;;;13.30;99.90;;;;;;5017285;28;20607;-79
2021/09/23 09:23:41;;;;;;;16.60;14.00;;;13.30;99.90;;;;;;4997210;28;20187;-79
2021/09/23 09:26:08;;;;;;;21.10;13.77;;;13.40;99.90;;;;;;5017170;28;20178;-80
2021/09/23 09:28:48;;;;;;;18.17;14.27;;;13.50;99.90;;;;;;5011386;28;20197;-81
2021/09/23 09:31:13;;;;;;;15.57;12.57;;;13.60;99.90;;;;;;5021502;28;20600;-79
2021/09/23 09:33:43;;;;;;;16.43;13.33;;;13.70;99.90;;;;;;5021932;28;20180;-80
2021/09/23 09:36:30;;;;;;;14.23;12.13;;;13.80;99.90;;;;;;4983637;28;20187;-79
2021/09/23 09:39:02;;;;;;;15.93;13.17;;;13.70;99.90;;;;;;4984830;28;20196;-79
2021/09/23 09:41:31;;;;;;;16.07;13.37;;;13.80;99.90;;;;;;4999003;28;20180;-80
2021/09/23 09:43:58;;;;;;;15.40;12.97;;;13.90;99.90;;;;;;4987474;28;20199;-79
2021/09/23 09:46:26;;;;;;;18.37;13.57;;;14.10;99.90;;;;;;4984199;28;20180;-78
2021/09/23 09:48:53;;;;;;;17.90;13.67;;;14.10;99.90;;;;;;5006067;28;20195;-79
2021/09/23 09:51:45;;;;;;;15.63;13.33;;;14.10;99.90;;;;;;4998194;28;20222;-79
2021/09/23 09:54:14;;;;;;;15.83;12.90;;;14.30;99.90;;;;;;5009628;28;20229;-79
2021/09/23 09:56:42;;;;;;;18.73;14.07;;;14.30;99.90;;;;;;4998755;28;20200;-79
2021/09/23 09:59:16;;;;;;;14.90;13.07;;;14.40;99.90;;;;;;5006321;28;20375;-79
2021/09/23 10:01:47;;;;;;;14.43;12.33;;;14.50;99.90;;;;;;5014415;28;20168;-79
2021/09/23 10:04:14;;;;;;;16.13;13.77;;;14.50;99.90;;;;;;4985009;28;20215;-79
2021/09/23 10:06:42;;;;;;;14.63;12.40;;;14.50;99.90;;;;;;5009855;28;20254;-80
2021/09/23 10:09:10;;;;;;;14.67;12.00;;;14.60;99.90;;;;;;5009235;28;20310;-80
2021/09/23 10:11:44;;;;;;;14.67;13.20;;;14.80;99.90;;;;;;5019845;28;20218;-80
2021/09/23 10:14:12;;;;;;;14.20;12.73;;;14.70;99.90;;;;;;4999147;28;20266;-80
2021/09/23 10:16:38;;;;;;;14.70;12.60;;;14.80;99.90;;;;;;4993487;28;20208;-80
2021/09/23 10:19:07;;;;;;;19.53;14.57;;;14.80;99.90;;;;;;5010233;28;20199;-80
2021/09/23 10:21:33;;;;;;;23.73;16.40;;;15.00;99.90;;;;;;5019571;28;20175;-80
2021/09/23 10:24:01;;;;;;;37.00;22.50;;;15.10;99.90;;;;;;5019962;28;20232;-80
2021/09/23 10:26:32;;;;;;;16.93;13.57;;;15.30;99.90;;;;;;5006068;28;20180;-80
2021/09/23 10:29:00;;;;;;;15.27;12.80;;;15.30;99.90;;;;;;4986160;28;20200;-80
2021/09/23 10:31:32;;;;;;;16.00;14.30;;;15.40;99.90;;;;;;5019941;28;20186;-80
2021/09/23 10:34:06;;;;;;;16.20;13.40;;;15.50;99.90;;;;;;4998474;28;20180;-80
2021/09/23 10:36:34;;;;;;;14.70;13.13;;;15.40;99.90;;;;;;4996429;28;20217;-80
2021/09/23 10:39:04;;;;;;;18.90;13.90;;;15.50;99.90;;;;;;4994719;28;20214;-81
2021/09/23 10:41:32;;;;;;;25.10;17.60;;;15.60;99.90;;;;;;4995419;28;20635;-81
2021/09/23 10:44:10;;;;;;;17.67;13.60;;;15.60;99.90;;;;;;5022832;28;20213;-80
2021/09/23 10:46:36;;;;;;;20.90;14.47;;;15.80;99.90;;;;;;5012173;28;20186;-80
2021/09/23 10:49:04;;;;;;;16.13;13.13;;;15.80;99.90;;;;;;5020735;28;20203;-80
2021/09/23 10:51:34;;;;;;;16.00;13.33;;;16.10;99.90;;;;;;5022182;28;20258;-80
2021/09/23 10:54:00;;;;;;;15.87;11.60;;;16.30;99.90;;;;;;5018204;28;20176;-80
2021/09/23 10:56:27;;;;;;;13.03;11.77;;;16.30;99.90;;;;;;5006075;28;20206;-80
2021/09/23 10:58:54;;;;;;;15.07;11.83;;;16.40;99.90;;;;;;4996553;28;20719;-81
2021/09/23 11:01:25;;;;;;;12.47;11.17;;;16.50;99.90;;;;;;4998118;28;20176;-80
2021/09/23 11:03:53;;;;;;;14.17;12.80;;;16.50;99.90;;;;;;4993553;28;20179;-79
2021/09/23 11:06:18;;;;;;;12.57;11.27;;;16.50;99.90;;;;;;4998345;28;20172;-80
2021/09/23 11:08:48;;;;;;;15.33;13.47;;;16.50;99.90;;;;;;5002848;28;20601;-80
2021/09/23 11:11:14;;;;;;;13.53;12.17;;;16.70;99.90;;;;;;4998344;28;20189;-78
2021/09/23 11:13:41;;;;;;;12.00;10.80;;;16.70;99.90;;;;;;4999683;28;20183;-80
2021/09/23 11:16:12;;;;;;;11.77;10.57;;;17.10;99.90;;;;;;4987098;28;20506;-82
2021/09/23 11:18:40;;;;;;;10.73;9.73;;;17.30;99.90;;;;;;4986301;28;20636;-80
2021/09/23 11:21:07;;;;;;;13.40;12.07;;;17.60;99.90;;;;;;4989861;28;20187;-80
2021/09/23 11:23:34;;;;;;;11.77;10.70;;;17.40;99.90;;;;;;5009546;28;20179;-80
2021/09/23 11:26:01;;;;;;;10.47;9.37;;;17.40;99.90;;;;;;4993126;28;20262;-80
2021/09/23 11:28:28;;;;;;;10.63;9.70;;;17.60;99.90;;;;;;4990501;28;20195;-80
2021/09/23 11:30:54;;;;;;;10.57;9.53;;;17.70;99.90;;;;;;4991557;28;20530;-80
2021/09/23 11:33:24;;;;;;;13.63;11.17;;;17.80;99.90;;;;;;4988886;28;20183;-81
2021/09/23 11:35:52;;;;;;;12.13;10.93;;;;;;;;;;4995598;28;20198;-81
2021/09/23 11:38:20;;;;;;;10.83;9.70;;;18.10;99.90;;;;;;5000213;28;20278;-82
2021/09/23 11:40:48;;;;;;;10.90;9.73;;;18.10;99.90;;;;;;5002892;28;20195;-81
2021/09/23 11:43:17;;;;;;;10.77;9.77;;;18.20;99.90;;;;;;4995429;28;20180;-80
2021/09/23 11:45:46;;;;;;;10.70;9.80;;;18.90;99.90;;;;;;5003653;28;20681;-82
2021/09/23 11:48:14;;;;;;;10.67;9.77;;;18.30;99.90;;;;;;4998275;28;20203;-81
2021/09/23 11:50:45;;;;;;;10.80;9.67;;;18.30;99.90;;;;;;4999398;28;20184;-80
2021/09/23 11:53:17;;;;;;;11.97;10.70;;;18.30;99.90;;;;;;4999020;28;20178;-80
2021/09/23 11:55:53;;;;;;;11.13;10.20;;;18.40;99.90;;;;;;4999551;28;20180;-80
2021/09/23 11:58:18;;;;;;;11.90;10.80;;;18.40;99.90;;;;;;4988917;28;20265;-80
2021/09/23 12:00:50;;;;;;;13.67;12.37;;;18.50;99.90;;;;;;4998999;28;20270;-80
2021/09/23 12:03:17;;;;;;;12.17;11.17;;;18.50;99.90;;;;;;4997104;28;20202;-80
2021/09/23 12:05:44;;;;;;;11.13;10.13;;;18.40;99.90;;;;;;4990046;28;20262;-81
2021/09/23 12:08:16;;;;;;;12.03;10.90;;;18.50;99.90;;;;;;4996193;28;20206;-80
2021/09/23 12:10:50;;;;;;;11.40;10.37;;;18.60;99.90;;;;;;4996419;28;20185;-80
2021/09/23 12:13:29;;;;;;;11.73;10.63;;;18.70;99.90;;;;;;4996296;28;20381;-81
2021/09/23 12:15:59;;;;;;;20.00;11.10;;;18.80;99.90;;;;;;4991393;28;20230;-82
2021/09/23 12:18:27;;;;;;;11.67;10.57;;;18.80;99.90;;;;;;4990229;28;20266;-80
2021/09/23 12:20:55;;;;;;;11.83;10.73;;;18.70;99.90;;;;;;4995710;28;20190;-79
2021/09/23 12:23:38;;;;;;;11.00;10.00;;;18.70;99.90;;;;;;4991002;28;20191;-77
2021/09/23 12:26:18;;;;;;;12.17;11.07;;;18.60;99.90;;;;;;4994383;28;20182;-80
2021/09/23 12:29:11;;;;;;;12.13;11.03;;;18.70;99.90;;;;;;4996132;28;20237;-82
2021/09/23 12:31:44;;;;;;;11.20;10.20;;;18.70;99.90;;;;;;4958983;28;20192;-79
2021/09/23 12:34:09;;;;;;;11.17;10.17;;;18.80;99.90;;;;;;5003373;28;20552;-80
2021/09/23 12:36:39;;;;;;;11.00;10.00;;;19.00;99.90;;;;;;4994321;28;20223;-81
2021/09/23 12:39:20;;;;;;;12.03;10.27;;;19.10;99.90;;;;;;5004600;28;20199;-80